createdAt,value
2019-01-21T00:00:32.130Z,22.22
2019-01-21T00:01:36.519Z,22.50
2019-01-21T00:02:40.072Z,23.47
2019-01-21T00:03:43.646Z,24.80
2019-01-21T00:04:47.195Z,23.90
2019-01-21T00:05:51.006Z,26.70
2019-01-21T00:06:54.558Z,27.27
2019-01-21T00:07:58.212Z,26.27
2019-01-21T00:09:01.762Z,25.57
2019-01-21T00:10:07.749Z,28.12
2019-01-21T00:11:11.298Z,24.18
2019-01-21T00:12:14.808Z,27.58
2019-01-21T00:13:18.357Z,23.77
2019-01-21T00:14:21.901Z,26.02
2019-01-21T00:15:25.478Z,22.73
2019-01-21T00:16:28.985Z,24.75
2019-01-21T00:17:32.463Z,22.48
2019-01-21T00:18:36.010Z,23.40
2019-01-21T00:19:39.481Z,23.60
2019-01-21T00:20:43.030Z,22.95
2019-01-21T00:21:46.617Z,22.50
2019-01-21T00:22:50.167Z,22.85
2019-01-21T00:23:53.721Z,23.40
2019-01-21T00:24:57.338Z,24.00
2019-01-21T00:26:00.875Z,24.80
2019-01-21T00:27:04.568Z,24.52
2019-01-21T00:28:08.177Z,23.30
2019-01-21T00:29:11.654Z,22.30
2019-01-21T00:30:15.125Z,21.95
2019-01-21T00:31:18.634Z,23.70
2019-01-21T00:32:22.106Z,22.52
2019-01-21T00:33:25.894Z,22.73
2019-01-21T00:34:29.437Z,24.98
2019-01-21T00:35:33.022Z,23.52
2019-01-21T00:36:36.534Z,24.60
2019-01-21T00:37:40.015Z,22.25
2019-01-21T00:38:43.562Z,24.12
2019-01-21T00:39:47.110Z,22.45
2019-01-21T00:40:50.654Z,24.23
2019-01-21T00:41:54.174Z,22.85
2019-01-21T00:42:57.790Z,24.12
2019-01-21T00:44:01.297Z,21.95
2019-01-21T00:45:06.483Z,21.27
2019-01-21T00:46:10.038Z,18.90
2019-01-21T00:47:13.582Z,21.45
2019-01-21T00:48:17.130Z,20.45
2019-01-21T00:49:20.630Z,22.82
2019-01-21T00:50:24.182Z,23.02
2019-01-21T00:51:27.654Z,22.20
2019-01-21T00:52:31.204Z,21.85
2019-01-21T00:53:34.754Z,21.12
2019-01-21T00:54:38.331Z,22.42
2019-01-21T00:55:41.910Z,20.52
2019-01-21T00:56:45.527Z,21.60
2019-01-21T00:57:49.078Z,22.22
2019-01-21T00:58:52.658Z,23.45
2019-01-21T00:59:56.132Z,22.58
2019-01-21T01:00:59.750Z,20.55
2019-01-21T01:02:03.294Z,20.80
2019-01-21T01:03:06.910Z,22.30
2019-01-21T01:04:10.410Z,22.98
2019-01-21T01:05:14.257Z,20.77
2019-01-21T01:06:17.740Z,20.80
2019-01-21T01:07:21.283Z,21.12
2019-01-21T01:08:24.830Z,21.20
2019-01-21T01:09:28.302Z,21.02
2019-01-21T01:10:31.809Z,22.05
2019-01-21T01:11:35.290Z,21.05
2019-01-21T01:12:38.844Z,21.40
2019-01-21T01:13:42.385Z,21.40
2019-01-21T01:14:45.869Z,21.25
2019-01-21T01:15:49.450Z,21.37
2019-01-21T01:16:52.994Z,21.85
2019-01-21T01:17:56.466Z,21.45
2019-01-21T01:19:00.113Z,20.60
2019-01-21T01:20:05.498Z,19.37
2019-01-21T01:21:09.006Z,20.97
2019-01-21T01:22:12.544Z,21.35
2019-01-21T01:23:16.042Z,20.45
2019-01-21T01:24:19.518Z,21.57
2019-01-21T01:25:23.098Z,20.00
2019-01-21T01:26:26.684Z,19.98
2019-01-21T01:27:30.229Z,22.10
2019-01-21T01:28:33.746Z,19.73
2019-01-21T01:29:37.229Z,20.25
2019-01-21T01:30:40.702Z,21.17
2019-01-21T01:31:44.250Z,20.60
2019-01-21T01:32:47.721Z,19.57
2019-01-21T01:33:51.310Z,20.45
2019-01-21T01:34:54.858Z,19.95
2019-01-21T01:35:58.329Z,19.57
2019-01-21T01:37:01.834Z,19.10
2019-01-21T01:38:05.551Z,19.95
2019-01-21T01:39:09.092Z,20.08
2019-01-21T01:40:14.910Z,20.35
2019-01-21T01:41:18.420Z,20.00
2019-01-21T01:42:21.966Z,20.08
2019-01-21T01:43:25.555Z,19.90
2019-01-21T01:44:29.103Z,20.68
2019-01-21T01:45:32.725Z,20.40
2019-01-21T01:46:36.310Z,20.10
2019-01-21T01:47:44.693Z,19.87
2019-01-21T01:48:46.566Z,19.10
2019-01-21T01:49:50.242Z,20.32
2019-01-21T01:50:54.654Z,19.30
2019-01-21T01:51:58.243Z,21.00
2019-01-21T01:53:01.871Z,20.68
2019-01-21T01:54:05.443Z,21.27
2019-01-21T01:55:10.635Z,19.75
2019-01-21T01:56:14.183Z,19.50
2019-01-21T01:57:17.768Z,20.50
2019-01-21T01:58:21.389Z,18.90
2019-01-21T01:59:24.933Z,20.43
2019-01-21T02:00:28.921Z,20.45
2019-01-21T02:01:32.468Z,19.00
2019-01-21T02:02:36.061Z,21.12
2019-01-21T02:03:39.614Z,19.15
2019-01-21T02:04:43.158Z,19.73
2019-01-21T02:05:46.722Z,20.15
2019-01-21T02:06:50.706Z,20.20
2019-01-21T02:07:54.789Z,19.90
2019-01-21T02:08:58.310Z,21.75
2019-01-21T02:10:01.931Z,20.75
2019-01-21T02:11:05.506Z,20.10
2019-01-21T02:12:09.053Z,19.23
2019-01-21T02:13:12.669Z,18.00
2019-01-21T02:14:16.218Z,18.80
2019-01-21T02:15:19.883Z,18.07
2019-01-21T02:16:23.422Z,18.52
2019-01-21T02:17:26.970Z,19.98
2019-01-21T02:18:30.546Z,19.00
2019-01-21T02:19:36.038Z,20.65
2019-01-21T02:20:39.581Z,19.52
2019-01-21T02:21:44.610Z,19.60
2019-01-21T02:22:50.801Z,19.35
2019-01-21T02:23:57.423Z,19.52
2019-01-21T02:25:01.099Z,18.42
2019-01-21T02:26:06.222Z,18.70
2019-01-21T02:27:12.138Z,19.50
2019-01-21T02:28:21.839Z,18.15
2019-01-21T02:29:28.462Z,18.95
2019-01-21T02:30:47.263Z,19.45
2019-01-21T02:32:21.463Z,17.62
2019-01-21T02:33:48.870Z,18.30
2019-01-21T02:34:58.174Z,18.90
2019-01-21T02:36:04.835Z,18.37
2019-01-21T02:37:31.334Z,17.80
2019-01-21T02:38:37.957Z,17.10
2019-01-21T02:39:56.523Z,18.77
2019-01-21T02:41:03.191Z,18.10
2019-01-21T02:42:09.820Z,17.98
2019-01-21T02:43:19.230Z,19.30
2019-01-21T02:44:28.869Z,18.80
2019-01-21T02:45:55.138Z,17.73
2019-01-21T02:47:04.429Z,17.60
2019-01-21T02:48:16.695Z,19.15
2019-01-21T02:49:46.012Z,19.45
2019-01-21T02:51:19.618Z,17.73
2019-01-21T02:52:38.004Z,17.10
2019-01-21T02:53:44.626Z,19.17
2019-01-21T02:54:57.243Z,19.10
2019-01-21T02:56:09.504Z,18.70
2019-01-21T02:57:34.275Z,19.40
2019-01-21T02:58:40.890Z,18.32
2019-01-21T03:00:18.025Z,21.73
2019-01-21T03:01:27.501Z,19.52
2019-01-21T03:02:36.960Z,20.45
2019-01-21T03:04:04.927Z,22.10
2019-01-21T03:05:32.744Z,21.25
2019-01-21T03:06:42.326Z,22.27
2019-01-21T03:08:17.594Z,21.10
2019-01-21T03:09:57.342Z,21.27
2019-01-21T03:11:06.329Z,21.15
2019-01-21T03:12:24.784Z,24.52
2019-01-21T03:13:34.190Z,21.90
2019-01-21T03:14:49.739Z,21.80
2019-01-21T03:16:12.006Z,24.43
2019-01-21T03:17:36.326Z,23.40
2019-01-21T03:18:48.585Z,22.22
2019-01-21T03:20:01.152Z,23.32
2019-01-21T03:21:24.426Z,24.35
2019-01-21T03:22:49.105Z,21.87
2019-01-21T03:24:05.729Z,19.82
2019-01-21T03:25:21.115Z,21.40
2019-01-21T03:26:36.351Z,20.57
2019-01-21T03:27:48.510Z,20.82
2019-01-21T03:29:07.375Z,19.85
2019-01-21T03:30:30.679Z,19.25
2019-01-21T03:32:02.928Z,19.05
2019-01-21T03:33:41.492Z,19.82
2019-01-21T03:35:02.972Z,18.80
2019-01-21T03:36:15.368Z,19.60
2019-01-21T03:37:40.063Z,21.12
2019-01-21T03:39:16.896Z,20.75
2019-01-21T03:40:24.296Z,18.85
2019-01-21T03:41:36.781Z,19.82
2019-01-21T03:42:49.288Z,20.30
2019-01-21T03:43:55.910Z,18.82
2019-01-21T03:45:02.539Z,19.20
2019-01-21T03:46:32.041Z,19.35
2019-01-21T03:47:38.682Z,20.95
2019-01-21T03:48:43.456Z,20.72
2019-01-21T03:50:19.083Z,19.40
2019-01-21T03:51:34.345Z,18.57
2019-01-21T03:53:03.889Z,20.65
2019-01-21T03:54:10.514Z,21.05
2019-01-21T03:55:15.602Z,20.05
2019-01-21T03:56:22.503Z,21.37
2019-01-21T03:57:31.966Z,21.95
2019-01-21T03:58:53.373Z,21.60
2019-01-21T04:00:02.870Z,22.65
2019-01-21T04:01:30.242Z,20.62
2019-01-21T04:02:45.677Z,22.73
2019-01-21T04:04:04.182Z,21.80
2019-01-21T04:05:13.914Z,21.33
2019-01-21T04:06:20.582Z,23.52
2019-01-21T04:07:32.855Z,23.87
2019-01-21T04:08:54.602Z,21.30
2019-01-21T04:10:20.601Z,22.05
2019-01-21T04:11:36.458Z,20.82
2019-01-21T04:12:49.052Z,20.50
2019-01-21T04:14:25.809Z,21.70
2019-01-21T04:15:44.314Z,20.88
2019-01-21T04:16:53.581Z,21.02
2019-01-21T04:18:02.758Z,21.30
2019-01-21T04:19:21.314Z,22.20
2019-01-21T04:20:39.851Z,19.82
2019-01-21T04:21:49.427Z,19.20
2019-01-21T04:23:04.757Z,20.10
2019-01-21T04:24:29.730Z,20.37
2019-01-21T04:25:38.861Z,19.45
2019-01-21T04:26:45.527Z,22.67
2019-01-21T04:27:54.991Z,20.82
2019-01-21T04:29:10.643Z,20.95
2019-01-21T04:30:33.994Z,20.37
2019-01-21T04:31:58.661Z,21.70
2019-01-21T04:33:27.899Z,19.00
2019-01-21T04:34:34.530Z,21.05
2019-01-21T04:36:05.546Z,21.50
2019-01-21T04:37:31.551Z,21.27
2019-01-21T04:38:43.738Z,19.27
2019-01-21T04:40:14.236Z,20.82
2019-01-21T04:41:29.670Z,20.52
2019-01-21T04:42:44.584Z,20.55
2019-01-21T04:44:02.805Z,20.55
2019-01-21T04:45:21.438Z,19.80
2019-01-21T04:46:52.199Z,19.67
2019-01-21T04:48:07.399Z,19.23
2019-01-21T04:49:22.954Z,23.20
2019-01-21T04:50:34.823Z,20.32
2019-01-21T04:52:06.760Z,19.48
2019-01-21T04:53:34.529Z,18.25
2019-01-21T04:55:02.229Z,21.20
2019-01-21T04:56:08.908Z,21.55
2019-01-21T04:57:18.430Z,18.92
2019-01-21T04:58:27.841Z,19.57
2019-01-21T04:59:46.209Z,21.17
2019-01-21T05:01:21.536Z,19.52
2019-01-21T05:02:49.881Z,18.35
2019-01-21T05:04:05.523Z,18.75
2019-01-21T05:05:32.240Z,19.73
2019-01-21T05:06:38.871Z,19.23
2019-01-21T05:08:05.139Z,20.10
2019-01-21T05:09:26.963Z,19.20
2019-01-21T05:10:48.791Z,17.05
2019-01-21T05:12:07.445Z,18.60
2019-01-21T05:13:32.059Z,21.90
2019-01-21T05:15:07.445Z,19.90
2019-01-21T05:16:30.707Z,26.80
2019-01-21T05:18:02.607Z,19.67
2019-01-21T05:19:20.963Z,20.12
2019-01-21T05:20:27.598Z,20.48
2019-01-21T05:21:40.018Z,20.05
2019-01-21T05:22:51.707Z,20.43
2019-01-21T05:24:10.266Z,21.75
2019-01-21T05:25:22.984Z,19.52
2019-01-21T05:26:35.278Z,20.92
2019-01-21T05:27:44.546Z,20.48
2019-01-21T05:29:10.828Z,25.02
2019-01-21T05:30:23.368Z,20.32
2019-01-21T05:31:38.790Z,21.25
2019-01-21T05:33:10.580Z,20.65
2019-01-21T05:34:29.234Z,18.42
2019-01-21T05:35:53.858Z,22.45
2019-01-21T05:37:09.219Z,20.55
2019-01-21T05:38:15.838Z,19.23
2019-01-21T05:39:28.466Z,19.40
2019-01-21T05:40:46.901Z,19.50
2019-01-21T05:42:19.369Z,20.10
2019-01-21T05:43:53.093Z,19.50
2019-01-21T05:45:11.430Z,17.90
2019-01-21T05:46:26.973Z,19.52
2019-01-21T05:47:52.869Z,20.82
2019-01-21T05:49:17.370Z,19.77
2019-01-21T05:50:32.754Z,17.07
2019-01-21T05:51:58.958Z,17.95
2019-01-21T05:53:26.394Z,19.75
2019-01-21T05:54:55.791Z,20.12
2019-01-21T05:56:10.734Z,18.30
2019-01-21T05:57:41.158Z,17.98
2019-01-21T05:58:53.523Z,17.62
2019-01-21T06:00:00.248Z,19.30
2019-01-21T06:01:09.866Z,19.48
2019-01-21T06:02:16.542Z,20.97
2019-01-21T06:03:25.786Z,19.65
2019-01-21T06:04:38.138Z,21.95
2019-01-21T06:05:59.446Z,21.40
2019-01-21T06:07:29.606Z,20.30
2019-01-21T06:08:59.986Z,20.92
2019-01-21T06:10:15.586Z,20.08
2019-01-21T06:11:37.351Z,21.40
2019-01-21T06:12:43.977Z,19.85
2019-01-21T06:13:59.350Z,20.25
2019-01-21T06:15:11.824Z,19.48
2019-01-21T06:16:51.678Z,20.08
2019-01-21T06:18:10.250Z,20.37
2019-01-21T06:19:16.811Z,18.57
2019-01-21T06:20:26.267Z,19.50
2019-01-21T06:21:41.576Z,20.55
2019-01-21T06:22:50.706Z,19.95
2019-01-21T06:24:19.786Z,19.52
2019-01-21T06:25:50.626Z,19.87
2019-01-21T06:27:19.930Z,18.20
2019-01-21T06:28:38.206Z,19.10
2019-01-21T06:29:53.782Z,20.30
2019-01-21T06:31:06.160Z,20.50
2019-01-21T06:32:29.307Z,20.85
2019-01-21T06:33:35.930Z,20.35
2019-01-21T06:35:03.578Z,19.57
2019-01-21T06:36:13.254Z,21.00
2019-01-21T06:37:28.475Z,21.73
2019-01-21T06:38:55.135Z,18.80
2019-01-21T06:40:07.498Z,21.17
2019-01-21T06:41:29.174Z,18.52
2019-01-21T06:42:56.535Z,20.92
2019-01-21T06:44:05.862Z,20.45
2019-01-21T06:45:27.578Z,20.35
2019-01-21T06:46:39.919Z,20.50
2019-01-21T06:47:52.494Z,22.05
2019-01-21T06:49:28.039Z,19.55
2019-01-21T06:51:06.537Z,20.32
2019-01-21T06:52:21.842Z,19.30
2019-01-21T06:53:28.389Z,20.88
2019-01-21T06:54:34.933Z,20.45
2019-01-21T06:55:44.418Z,21.45
2019-01-21T06:56:53.575Z,24.15
2019-01-21T06:58:12.234Z,31.95
2019-01-21T06:59:30.366Z,32.58
2019-01-21T07:00:53.734Z,28.85
2019-01-21T07:02:09.156Z,32.65
2019-01-21T07:03:25.071Z,34.58
2019-01-21T07:04:34.584Z,32.90
2019-01-21T07:05:53.154Z,29.50
2019-01-21T07:07:34.558Z,20.45
2019-01-21T07:08:59.054Z,23.35
2019-01-21T07:10:23.958Z,33.25
2019-01-21T07:11:39.658Z,34.63
2019-01-21T07:13:10.238Z,35.52
2019-01-21T07:14:32.171Z,30.57
2019-01-21T07:15:53.435Z,24.27
2019-01-21T07:17:02.911Z,24.67
2019-01-21T07:18:26.065Z,21.55
2019-01-21T07:19:38.787Z,20.10
2019-01-21T07:21:02.763Z,23.83
2019-01-21T07:22:31.786Z,25.08
2019-01-21T07:23:47.361Z,28.50
2019-01-21T07:25:02.539Z,33.18
2019-01-21T07:26:34.526Z,22.02
2019-01-21T07:27:46.930Z,16.95
2019-01-21T07:28:58.879Z,17.07
2019-01-21T07:30:22.307Z,19.62
2019-01-21T07:31:31.814Z,19.55
2019-01-21T07:32:46.862Z,19.32
2019-01-21T07:34:17.663Z,20.80
2019-01-21T07:35:30.181Z,20.97
2019-01-21T07:36:45.874Z,23.27
2019-01-21T07:37:55.367Z,19.98
2019-01-21T07:39:10.763Z,20.30
2019-01-21T07:40:19.881Z,20.08
2019-01-21T07:41:35.176Z,20.02
2019-01-21T07:42:47.294Z,20.15
2019-01-21T07:44:02.994Z,20.70
2019-01-21T07:45:17.995Z,20.35
2019-01-21T07:46:36.761Z,19.65
2019-01-21T07:48:05.128Z,20.30
2019-01-21T07:49:20.621Z,21.10
2019-01-21T07:50:42.570Z,22.20
2019-01-21T07:52:10.262Z,24.00
2019-01-21T07:53:35.968Z,26.50
2019-01-21T07:55:03.280Z,23.30
2019-01-21T07:56:15.818Z,21.85
2019-01-21T07:57:28.014Z,20.30
2019-01-21T07:58:58.465Z,21.27
2019-01-21T08:00:05.099Z,20.75
2019-01-21T08:01:23.210Z,21.85
2019-01-21T08:02:44.744Z,22.32
2019-01-21T08:03:57.242Z,20.00
2019-01-21T08:05:09.702Z,21.30
2019-01-21T08:06:19.238Z,22.75
2019-01-21T08:07:34.674Z,21.75
2019-01-21T08:08:50.048Z,21.48
2019-01-21T08:10:16.521Z,22.48
2019-01-21T08:11:23.142Z,21.12
2019-01-21T08:12:46.096Z,20.92
2019-01-21T08:14:01.593Z,20.80
2019-01-21T08:15:27.492Z,22.25
2019-01-21T08:16:39.670Z,20.62
2019-01-21T08:18:02.738Z,21.80
2019-01-21T08:19:30.561Z,22.25
2019-01-21T08:20:45.967Z,20.80
2019-01-21T08:22:01.370Z,20.30
2019-01-21T08:23:19.254Z,19.65
2019-01-21T08:24:31.513Z,19.57
2019-01-21T08:25:54.446Z,18.92
2019-01-21T08:27:03.626Z,19.55
2019-01-21T08:28:33.143Z,21.12
2019-01-21T08:29:45.492Z,20.20
2019-01-21T08:31:12.914Z,21.30
2019-01-21T08:32:31.409Z,31.77
2019-01-21T08:33:38.074Z,27.17
2019-01-21T08:34:44.759Z,25.17
2019-01-21T08:36:11.090Z,25.23
2019-01-21T08:37:17.718Z,20.95
2019-01-21T08:38:24.346Z,22.62
2019-01-21T08:39:42.684Z,21.10
2019-01-21T08:41:04.387Z,22.35
2019-01-21T08:42:16.766Z,20.62
2019-01-21T08:43:29.013Z,19.85
2019-01-21T08:45:10.650Z,18.52
2019-01-21T08:46:45.915Z,19.20
2019-01-21T08:48:07.672Z,20.70
2019-01-21T08:49:19.530Z,21.30
2019-01-21T08:50:47.109Z,20.95
2019-01-21T08:52:11.638Z,21.42
2019-01-21T08:53:21.138Z,21.30
2019-01-21T08:54:30.529Z,21.90
2019-01-21T08:55:42.970Z,24.45
2019-01-21T08:57:09.493Z,22.40
2019-01-21T08:58:16.054Z,22.95
2019-01-21T08:59:34.613Z,20.90
2019-01-21T09:00:56.223Z,24.52
2019-01-21T09:02:22.274Z,22.87
2019-01-21T09:03:45.566Z,22.07
2019-01-21T09:05:24.217Z,23.27
2019-01-21T09:06:33.403Z,18.82
2019-01-21T09:08:13.456Z,22.48
2019-01-21T09:09:22.986Z,20.77
2019-01-21T09:10:41.238Z,21.80
2019-01-21T09:11:59.502Z,21.75
2019-01-21T09:13:11.650Z,22.20
2019-01-21T09:14:23.818Z,21.30
2019-01-21T09:15:30.441Z,22.85
2019-01-21T09:16:58.233Z,22.25
2019-01-21T09:18:13.859Z,20.62
2019-01-21T09:19:37.349Z,20.92
2019-01-21T09:21:10.515Z,19.90
2019-01-21T09:22:22.882Z,18.62
2019-01-21T09:23:38.258Z,22.90
2019-01-21T09:24:44.811Z,22.17
2019-01-21T09:26:00.177Z,23.20
2019-01-21T09:27:12.587Z,22.90
2019-01-21T09:28:21.906Z,24.10
2019-01-21T09:29:34.086Z,22.00
2019-01-21T09:30:43.790Z,22.10
2019-01-21T09:31:53.102Z,20.85
2019-01-21T09:33:16.317Z,22.27
2019-01-21T09:34:28.766Z,20.88
2019-01-21T09:35:44.138Z,21.77
2019-01-21T09:36:53.652Z,23.73
2019-01-21T09:38:06.195Z,19.95
2019-01-21T09:39:18.886Z,22.65
2019-01-21T09:40:48.110Z,23.40
2019-01-21T09:42:22.181Z,20.40
2019-01-21T09:43:50.083Z,22.87
2019-01-21T09:45:08.748Z,22.93
2019-01-21T09:46:20.872Z,23.90
2019-01-21T09:47:23.343Z,23.05
2019-01-21T09:48:25.858Z,22.37
2019-01-21T09:49:28.695Z,23.00
2019-01-21T09:50:32.778Z,24.98
2019-01-21T09:51:37.193Z,24.00
2019-01-21T09:52:41.310Z,23.12
2019-01-21T09:53:47.610Z,22.75
2019-01-21T09:54:51.951Z,22.40
2019-01-21T09:55:55.644Z,23.55
2019-01-21T09:56:59.266Z,23.10
2019-01-21T09:58:05.617Z,22.90
2019-01-21T09:59:09.282Z,22.77
2019-01-21T10:00:18.429Z,22.93
2019-01-21T10:01:23.749Z,22.93
2019-01-21T10:02:30.371Z,21.40
2019-01-21T10:03:34.482Z,22.93
2019-01-21T10:04:43.690Z,21.85
2019-01-21T10:05:49.618Z,22.42
2019-01-21T10:06:58.733Z,23.62
2019-01-21T10:08:08.118Z,23.57
2019-01-21T10:09:17.281Z,24.77
2019-01-21T10:10:35.926Z,21.37
2019-01-21T10:11:45.171Z,22.15
2019-01-21T10:13:11.289Z,22.27
2019-01-21T10:14:38.430Z,21.97
2019-01-21T10:16:18.328Z,20.12
2019-01-21T10:17:24.978Z,20.88
2019-01-21T10:18:40.366Z,19.30
2019-01-21T10:20:09.422Z,21.52
2019-01-21T10:21:28.066Z,24.05
2019-01-21T10:22:40.490Z,20.05
2019-01-21T10:24:03.906Z,22.10
2019-01-21T10:25:10.538Z,22.52
2019-01-21T10:26:35.158Z,22.55
2019-01-21T10:27:58.359Z,24.30
2019-01-21T10:29:07.630Z,22.77
2019-01-21T10:30:20.222Z,23.05
2019-01-21T10:31:44.641Z,20.15
2019-01-21T10:33:06.335Z,20.55
2019-01-21T10:34:33.926Z,19.98
2019-01-21T10:36:12.215Z,19.90
2019-01-21T10:37:27.774Z,18.67
2019-01-21T10:38:37.175Z,20.70
2019-01-21T10:40:03.361Z,19.80
2019-01-21T10:41:15.678Z,19.98
2019-01-21T10:42:22.303Z,18.42
2019-01-21T10:43:48.430Z,17.85
2019-01-21T10:45:12.037Z,19.05
2019-01-21T10:46:21.666Z,21.55
2019-01-21T10:47:34.414Z,20.50
2019-01-21T10:48:59.074Z,18.67
2019-01-21T10:50:08.484Z,18.62
2019-01-21T10:51:21.134Z,19.60
2019-01-21T10:52:30.685Z,20.80
2019-01-21T10:53:46.026Z,15.20
2019-01-21T10:55:07.530Z,20.20
2019-01-21T10:56:16.918Z,19.05
2019-01-21T10:57:32.366Z,20.17
2019-01-21T10:59:02.830Z,20.17
2019-01-21T11:00:30.530Z,20.37
2019-01-21T11:01:45.837Z,19.23
2019-01-21T11:03:10.342Z,17.92
2019-01-21T11:04:22.910Z,17.37
2019-01-21T11:05:46.298Z,18.73
2019-01-21T11:07:07.951Z,18.05
2019-01-21T11:08:32.250Z,17.87
2019-01-21T11:09:53.842Z,17.90
2019-01-21T11:11:18.517Z,17.27
2019-01-21T11:12:34.017Z,17.73
2019-01-21T11:14:12.508Z,16.10
2019-01-21T11:15:22.171Z,16.30
2019-01-21T11:16:37.150Z,16.17
2019-01-21T11:17:58.588Z,18.00
2019-01-21T11:19:13.919Z,17.12
2019-01-21T11:20:38.453Z,19.23
2019-01-21T11:21:47.571Z,16.32
2019-01-21T11:23:02.818Z,19.37
2019-01-21T11:24:24.059Z,20.12
2019-01-21T11:25:54.678Z,17.90
2019-01-21T11:27:09.836Z,18.95
2019-01-21T11:28:22.250Z,17.57
2019-01-21T11:29:37.594Z,19.65
2019-01-21T11:30:52.839Z,19.85
2019-01-21T11:32:08.427Z,19.02
2019-01-21T11:33:20.887Z,15.88
2019-01-21T11:34:36.145Z,17.42
2019-01-21T11:36:00.846Z,18.32
2019-01-21T11:37:12.970Z,18.12
2019-01-21T11:38:25.502Z,15.95
2019-01-21T11:39:40.953Z,17.70
2019-01-21T11:40:53.575Z,18.00
2019-01-21T11:42:16.570Z,16.62
2019-01-21T11:43:44.299Z,17.17
2019-01-21T11:44:50.918Z,15.90
2019-01-21T11:46:03.231Z,16.20
2019-01-21T11:47:27.997Z,17.10
2019-01-21T11:48:49.626Z,19.37
2019-01-21T11:49:59.034Z,19.25
2019-01-21T11:51:20.430Z,18.10
2019-01-21T11:52:29.879Z,16.10
2019-01-21T11:53:44.760Z,16.10
2019-01-21T11:54:56.995Z,12.47
2019-01-21T11:56:03.618Z,13.83
2019-01-21T11:57:28.090Z,14.73
2019-01-21T11:58:40.565Z,16.00
2019-01-21T11:59:53.022Z,14.23
2019-01-21T12:01:02.359Z,14.40
2019-01-21T12:02:17.442Z,17.23
2019-01-21T12:03:26.723Z,14.70
2019-01-21T12:04:45.406Z,14.10
2019-01-21T12:05:52.041Z,14.40
2019-01-21T12:07:10.482Z,14.75
2019-01-21T12:08:17.101Z,15.08
2019-01-21T12:09:43.819Z,16.02
2019-01-21T12:10:56.317Z,15.30
2019-01-21T12:12:05.766Z,17.00
2019-01-21T12:13:34.882Z,15.45
2019-01-21T12:15:04.260Z,18.42
2019-01-21T12:16:31.693Z,16.80
2019-01-21T12:17:41.044Z,13.98
2019-01-21T12:18:59.882Z,15.28
2019-01-21T12:20:17.804Z,15.75
2019-01-21T12:21:33.268Z,15.55
2019-01-21T12:23:00.839Z,16.30
2019-01-21T12:24:07.514Z,16.00
2019-01-21T12:25:25.953Z,15.93
2019-01-21T12:26:50.769Z,15.45
2019-01-21T12:28:21.470Z,15.23
2019-01-21T12:29:45.940Z,15.65
2019-01-21T12:31:01.064Z,15.00
2019-01-21T12:32:35.157Z,14.68
2019-01-21T12:33:59.970Z,16.40
2019-01-21T12:35:12.306Z,15.60
2019-01-21T12:36:18.970Z,16.25
2019-01-21T12:37:28.357Z,15.10
2019-01-21T12:38:52.586Z,16.85
2019-01-21T12:40:01.684Z,15.15
2019-01-21T12:41:37.019Z,15.40
2019-01-21T12:42:43.642Z,17.60
2019-01-21T12:43:56.001Z,16.90
2019-01-21T12:45:02.610Z,16.67
2019-01-21T12:46:11.906Z,15.15
2019-01-21T12:47:30.467Z,16.30
2019-01-21T12:48:37.086Z,17.55
2019-01-21T12:49:49.570Z,16.55
2019-01-21T12:51:08.207Z,15.35
2019-01-21T12:52:17.602Z,15.90
2019-01-21T12:53:49.226Z,14.78
2019-01-21T12:55:01.673Z,15.00
2019-01-21T12:56:26.513Z,15.32
2019-01-21T12:57:49.547Z,14.90
2019-01-21T12:59:16.071Z,15.30
2019-01-21T13:00:38.437Z,16.62
2019-01-21T13:01:45.111Z,14.83
2019-01-21T13:03:03.716Z,16.77
2019-01-21T13:04:10.339Z,17.00
2019-01-21T13:05:19.782Z,16.07
2019-01-21T13:06:37.901Z,17.23
2019-01-21T13:07:59.354Z,17.23
2019-01-21T13:09:30.295Z,17.25
2019-01-21T13:10:36.955Z,16.40
2019-01-21T13:11:58.414Z,16.90
2019-01-21T13:13:13.406Z,17.42
2019-01-21T13:14:29.022Z,17.45
2019-01-21T13:15:50.402Z,15.30
2019-01-21T13:16:57.031Z,17.73
2019-01-21T13:18:21.966Z,17.23
2019-01-21T13:19:40.598Z,17.48
2019-01-21T13:21:20.186Z,16.90
2019-01-21T13:22:32.403Z,18.23
2019-01-21T13:23:38.960Z,16.48
2019-01-21T13:25:11.225Z,17.75
2019-01-21T13:26:40.250Z,17.42
2019-01-21T13:28:04.946Z,17.40
2019-01-21T13:29:20.730Z,18.67
2019-01-21T13:30:54.750Z,19.73
2019-01-21T13:32:04.242Z,18.07
2019-01-21T13:33:22.811Z,16.42
2019-01-21T13:34:35.198Z,17.45
2019-01-21T13:35:50.931Z,18.30
2019-01-21T13:37:03.248Z,19.23
2019-01-21T13:38:09.867Z,19.95
2019-01-21T13:39:46.903Z,20.60
2019-01-21T13:40:56.455Z,18.30
2019-01-21T13:42:06.009Z,19.80
2019-01-21T13:43:29.011Z,18.55
2019-01-21T13:44:44.713Z,17.73
2019-01-21T13:45:57.284Z,17.73
2019-01-21T13:47:31.231Z,17.10
2019-01-21T13:48:43.825Z,18.77
2019-01-21T13:50:02.434Z,18.80
2019-01-21T13:51:31.762Z,17.70
2019-01-21T13:52:57.316Z,20.00
2019-01-21T13:54:09.416Z,17.70
2019-01-21T13:55:45.085Z,18.85
2019-01-21T13:56:54.674Z,19.60
2019-01-21T13:58:19.753Z,19.07
2019-01-21T13:59:43.183Z,19.10
2019-01-21T14:00:55.948Z,20.17
2019-01-21T14:02:03.241Z,20.40
2019-01-21T14:03:21.910Z,19.92
2019-01-21T14:04:49.641Z,20.05
2019-01-21T14:05:59.299Z,19.87
2019-01-21T14:07:09.149Z,17.80
2019-01-21T14:08:22.046Z,19.37
2019-01-21T14:09:53.029Z,19.92
2019-01-21T14:11:06.067Z,16.90
2019-01-21T14:12:13.342Z,17.25
2019-01-21T14:13:26.477Z,17.32
2019-01-21T14:14:48.756Z,19.55
2019-01-21T14:16:05.033Z,19.90
2019-01-21T14:17:27.299Z,17.77
2019-01-21T14:18:37.264Z,16.52
2019-01-21T14:19:53.319Z,19.12
2019-01-21T14:21:09.571Z,18.73
2019-01-21T14:22:16.880Z,18.37
2019-01-21T14:23:32.802Z,19.27
2019-01-21T14:24:48.940Z,17.92
2019-01-21T14:26:27.192Z,19.27
2019-01-21T14:27:43.331Z,17.85
2019-01-21T14:28:53.507Z,17.82
2019-01-21T14:30:09.512Z,18.48
2019-01-21T14:31:34.929Z,18.48
2019-01-21T14:32:51.032Z,17.25
2019-01-21T14:34:13.403Z,18.37
2019-01-21T14:35:35.495Z,19.20
2019-01-21T14:36:54.375Z,18.20
2019-01-21T14:38:01.730Z,18.02
2019-01-21T14:39:14.929Z,17.35
2019-01-21T14:40:24.791Z,17.23
2019-01-21T14:41:32.260Z,18.20
2019-01-21T14:42:45.260Z,17.65
2019-01-21T14:44:14.812Z,18.27
2019-01-21T14:45:37.233Z,17.67
2019-01-21T14:46:49.883Z,17.52
2019-01-21T14:48:08.934Z,17.82
2019-01-21T14:49:21.966Z,20.48
2019-01-21T14:50:34.798Z,19.67
2019-01-21T14:52:04.773Z,20.45
2019-01-21T14:53:21.288Z,19.12
2019-01-21T14:54:30.783Z,18.98
2019-01-21T14:56:09.498Z,19.70
2019-01-21T14:57:25.189Z,20.43
2019-01-21T14:58:32.379Z,20.68
2019-01-21T14:59:48.595Z,18.60
2019-01-21T15:01:24.212Z,18.60
2019-01-21T15:02:39.907Z,19.30
2019-01-21T15:03:52.975Z,19.10
2019-01-21T15:05:15.109Z,22.62
2019-01-21T15:06:30.981Z,20.12
2019-01-21T15:07:40.394Z,21.37
2019-01-21T15:08:47.028Z,19.17
2019-01-21T15:10:19.278Z,19.65
2019-01-21T15:11:44.004Z,19.85
2019-01-21T15:12:56.877Z,19.27
2019-01-21T15:14:03.468Z,19.10
2019-01-21T15:15:35.757Z,21.27
2019-01-21T15:16:54.559Z,20.80
2019-01-21T15:18:10.210Z,18.95
2019-01-21T15:19:16.827Z,19.90
2019-01-21T15:20:24.379Z,21.30
2019-01-21T15:22:01.853Z,22.55
2019-01-21T15:23:26.414Z,18.07
2019-01-21T15:24:47.385Z,19.25
2019-01-21T15:26:05.955Z,18.67
2019-01-21T15:27:24.379Z,20.37
2019-01-21T15:28:46.174Z,19.95
2019-01-21T15:30:27.688Z,20.50
2019-01-21T15:31:37.032Z,19.12
2019-01-21T15:32:43.690Z,20.35
2019-01-21T15:33:59.164Z,19.32
2019-01-21T15:35:26.322Z,18.90
2019-01-21T15:36:44.202Z,19.30
2019-01-21T15:38:19.479Z,20.23
2019-01-21T15:39:32.100Z,18.25
2019-01-21T15:40:50.669Z,20.25
2019-01-21T15:42:03.118Z,21.73
2019-01-21T15:43:15.148Z,22.62
2019-01-21T15:44:27.081Z,20.80
2019-01-21T15:45:42.937Z,21.45
2019-01-21T15:47:15.213Z,21.02
2019-01-21T15:48:33.895Z,20.82
2019-01-21T15:49:46.263Z,22.32
2019-01-21T15:51:05.184Z,22.80
2019-01-21T15:52:18.155Z,24.95
2019-01-21T15:53:36.669Z,24.87
2019-01-21T15:55:11.867Z,22.48
2019-01-21T15:56:24.600Z,21.70
2019-01-21T15:57:36.958Z,21.48
2019-01-21T15:58:52.816Z,20.65
2019-01-21T16:00:02.787Z,21.15
2019-01-21T16:01:09.985Z,24.00
2019-01-21T16:02:28.794Z,20.25
2019-01-21T16:03:38.436Z,23.20
2019-01-21T16:04:45.714Z,23.62
2019-01-21T16:06:10.391Z,22.07
2019-01-21T16:07:23.105Z,24.20